EBCI - Charleroi/Gosselies, Belgium
Distance de la station: NE 18km
Mise à jour: 16/06/2024 20:50
quelques nuages
quelques nuages
 Wind from OSO
Vent: OSO 13 km/h
Température: 17°C
Point de rosée: 11°C
Humidité: 68%
Baromètre: 1008 hPa
Ciel: quelques nuages
Visibilité: 10 km
Détails du ciel: quelques nuages 1067 m
2024/06/16 18:50 EBCI 161850Z 25007KT 9999 FEW035 17/11 Q1008 NOSIG
EBFS - Florennes, Belgium
Distance de la station: ESE 31km
Mise à jour: 16/06/2024 21:12
plutôt nuageux
plutôt nuageux
 Wind from SSO
Vent: SSO 13 km/h
Température: 15°C
Point de rosée: 12°C
Humidité: 82%
Baromètre: 1008 hPa
Ciel: plutôt nuageux
Visibilité: 10 km
Détails du ciel: quelques nuages 518 m
partiellement nuageux 732 m
plutôt nuageux 4877 m
2024/06/16 19:12 EBFS 161912Z AUTO 21007KT 9999 FEW017/// SCT024/// BKN160/// 15/12 Q1008 WHT
EBCV - Chievres, Belgium
Distance de la station: NO 40km
Mise à jour: 16/06/2024 20:55
couvert
couvert
 Wind from OSO
Vent: OSO 11 km/h
Température: 16°C
Point de rosée: 11°C
Humidité: 72%
Baromètre: 1007 hPa
Ciel: couvert
Visibilité: 10 km
Détails du ciel: quelques nuages 1189 m
plutôt nuageux 2896 m
couvert 3353 m
2024/06/16 18:55 EBCV 161855Z AUTO 24006KT 9999 FEW039/// BKN095/// OVC110/// 16/11 Q1007 BLU
 
EBBE - Beauvechain, Belgium
Distance de la station: NE 57km
Mise à jour: 16/06/2024 20:55
pluie légère, couvert
pluie légère, couvert
 Wind from O
Vent: O 17 km/h
Température: 15°C
Point de rosée: 12°C
Humidité: 82%
Baromètre: 1007 hPa
Résumé: pluie légère
Ciel: couvert
Visibilité: 10 km
Détails du ciel: partiellement nuageux 975 m
couvert 2286 m
2024/06/16 18:55 EBBE 161855Z AUTO 26009KT 9999 -RA SCT032/// OVC075/// 15/12 Q1007 BLU
EBBR - Brussels National, Belgium
Distance de la station: NNE 63km
Mise à jour: 16/06/2024 20:50
quelques nuages
quelques nuages
 Wind from O
Vent: O 11 km/h
Température: 18°C
Point de rosée: 10°C
Humidité: 60%
Baromètre: 1007 hPa
Ciel: quelques nuages
Visibilité: 10 km
Détails du ciel: quelques nuages 1341 m
2024/06/16 18:50 EBBR 161850Z 26006KT 9999 FEW044CB 18/10 Q1007 NOSIG
LFQI - Cambrai/Epinoy, France
Distance de la station: O 82km
Mise à jour: 29/06/2012 12:30
NOT Current

 Wind from SO
Vent: SO 17 km/h
Température: 18°C
Point de rosée: 14°C
Humidité: 78%
Baromètre: 1009 hPa
2012/06/29 10:30 LFQI 291030Z AUTO 22009KT //// // ///////// 18/14 Q1009
 
LFQQ - Lille/Lesquin, France
Distance de la station: ONO 86km
Mise à jour: 16/06/2024 21:00
clair
clair
 Wind from SO
Vent: SO 11 km/h
Température: 17°C
Point de rosée: 9°C
Humidité: 59%
Baromètre: 1007 hPa
Résumé: clair
Visibilité: greater than 10 km
2024/06/16 19:00 LFQQ 161900Z AUTO 22006KT CAVOK 17/09 Q1007 NOSIG
EBLG - Bierset/Liege, Belgium
Distance de la station: ENE 89km
Mise à jour: 16/06/2024 20:50
quelques nuages
quelques nuages
 Wind from SSO
Vent: SSO 19 km/h
Température: 17°C
Point de rosée: 13°C
Humidité: 77%
Baromètre: 1008 hPa
Ciel: quelques nuages
Visibilité: 10 km
Détails du ciel: quelques nuages 914 m
2024/06/16 18:50 EBLG 161850Z 20010KT 9999 FEW030TCU 17/13 Q1008 TEMPO 3000 SHRA
EBDT - Schaffen, Belgium
Distance de la station: NE 93km
Mise à jour: 16/06/2024 20:55
clair
clair
 Wind from SO
Vent: SO 7 km/h
Température: 18°C
Point de rosée: 11°C
Humidité: 64%
Baromètre: 1007 hPa
Ciel: clair
Visibilité: 10 km
2024/06/16 18:55 EBDT 161855Z AUTO 23004KT 9999 NCD 18/11 Q1007 BLU
 
EBAW - Antwerp/Deurne, Belgium
Distance de la station: N 96km
Mise à jour: 16/06/2024 20:50
clair
clair
 Wind from OSO
Vent: OSO 20 km/h
Température: 19°C
Point de rosée: 8°C
Humidité: 49%
Baromètre: 1007 hPa
Résumé: clair
Visibilité: greater than 10 km
2024/06/16 18:50 EBAW 161850Z 24011KT CAVOK 19/08 Q1007 NOSIG
LFAQ - Bray, France
Distance de la station: OSO 119km
Mise à jour: 16/06/2024 21:00
clair
clair
 Wind from SSO
Vent: SSO 13 km/h
Température: 17°C
Point de rosée: 11°C
Humidité: 68%
Baromètre: 1007 hPa
Résumé: clair
Visibilité: greater than 10 km
2024/06/16 19:00 LFAQ 161900Z AUTO 21007KT CAVOK 17/11 Q1007
LFSR - Reims/Champagne, France
Distance de la station: S 120km
Mise à jour: 16/04/2012 09:00
NOT Current
partiellement nuageux
partiellement nuageux
 Wind from N
Vent: N 17 km/h
Température: 4°C
Température ressentie: 0°C
Point de rosée: 0°C
Humidité: 75%
Baromètre: 1022 hPa
Ciel: partiellement nuageux
Visibilité: 10 km
2012/04/16 07:00 LFSR 160700Z AUTO 01009KT 340V070 9999 NSC 04/00 Q1022
 
EHWO - Woensdrecht, Netherlands
Distance de la station: N 122km
Mise à jour: 16/06/2024 20:55
plutôt nuageux
plutôt nuageux
 Wind from O
Vent: O 11 km/h
Température: 18°C
Point de rosée: 11°C
Humidité: 64%
Baromètre: 1006 hPa
Ciel: plutôt nuageux
Visibilité: 10 km
Détails du ciel: quelques nuages 1311 m
partiellement nuageux 1829 m
plutôt nuageux 2225 m
2024/06/16 18:55 EHWO 161855Z AUTO 26006KT 230V310 9999 FEW043 SCT060 BKN073 18/11 Q1006 BLU
EHBK - Zuid-Limburg, Netherlands
Distance de la station: ENE 123km
Mise à jour: 16/06/2024 20:55
Light thunderstorm, Pluie, partiellement nuageux
Light thunderstorm, Pluie, partiellement nuageux
 Wind from SO
Vent: SO 9 km/h
Température: 16°C
Point de rosée: 14°C
Humidité: 88%
Baromètre: 1007 hPa
Résumé: Light thunderstorm, Pluie
Ciel: partiellement nuageux
Visibilité: 10 km
Détails du ciel: quelques nuages 457 m
partiellement nuageux 884 m
2024/06/16 18:55 EHBK 161855Z AUTO 22005KT 160V290 9999 -TSRA FEW015CB SCT029 16/14 Q1007 TEMPO 6000 SHRA TSRA SCT030CB
EBBL - Kleine-Brogel, Belgium
Distance de la station: NE 124km
Mise à jour: 16/06/2024 20:55
quelques nuages
quelques nuages
 Wind from SSO
Vent: SSO 9 km/h
Température: 17°C
Point de rosée: 11°C
Humidité: 68%
Baromètre: 1007 hPa
Ciel: quelques nuages
Visibilité: 10 km
Détails du ciel: quelques nuages 2713 m
2024/06/16 18:55 EBBL 161855Z AUTO 21005KT 9999 FEW089/// 17/11 Q1007 BLU
 
EBLB - Elsenborn, Belgium
Distance de la station: E 135km
Mise à jour: 16/06/2024 20:55
partiellement nuageux
partiellement nuageux
 Wind from SO
Vent: SO 9 km/h
Température: 12°C
Point de rosée: 12°C
Humidité: 100%
Baromètre: 1009 hPa
Ciel: partiellement nuageux
Visibilité: 10 km
Détails du ciel: partiellement nuageux 213 m
partiellement nuageux 1067 m
2024/06/16 18:55 EBLB 161855Z AUTO 22005KT 9999 SCT007/// SCT035/// 12/12 Q1009 GRN
EBOS - Oostende Airport, Belgium
Distance de la station: NO 136km
Mise à jour: 16/06/2024 20:50
quelques nuages
quelques nuages
 Wind from SO
Vent: SO 17 km/h
Température: 16°C
Point de rosée: 10°C
Humidité: 68%
Baromètre: 1007 hPa
Ciel: quelques nuages
Visibilité: 10 km
Détails du ciel: quelques nuages 1158 m
2024/06/16 18:50 EBOS 161850Z 23009KT 9999 FEW038 16/10 Q1007 NOSIG
EBFN - Koksijde, Belgium
Distance de la station: NO 140km
Mise à jour: 16/06/2024 20:55
plutôt nuageux
plutôt nuageux
 Wind from SO
Vent: SO 13 km/h
Température: 15°C
Point de rosée: 9°C
Humidité: 68%
Baromètre: 1006 hPa
Ciel: plutôt nuageux
Visibilité: 10 km
Détails du ciel: quelques nuages 4572 m
plutôt nuageux 5791 m
2024/06/16 18:55 EBFN 161855Z AUTO 23007KT 9999 FEW150/// BKN190/// 15/09 Q1006 BLU
 
ETNG - Geilenkirchen, Germany
Distance de la station: ENE 142km
Mise à jour: 16/06/2024 20:50
partiellement nuageux
partiellement nuageux
 Wind from SSO
Vent: SSO 6 km/h
Température: 17°C
Point de rosée: 14°C
Humidité: 83%
Baromètre: 1007 hPa
Ciel: partiellement nuageux
Visibilité: 10 km
Détails du ciel: quelques nuages 1280 m
partiellement nuageux 2438 m
2024/06/16 18:50 ETNG 161850Z 21003KT 9999 FEW042 SCT080 17/14 Q1007
EHGR - Gilze-Rijen, Netherlands
Distance de la station: NNE 143km
Mise à jour: 16/06/2024 20:55
plutôt nuageux
plutôt nuageux
 Wind from SSO
Vent: SSO 9 km/h
Température: 18°C
Point de rosée: 13°C
Humidité: 73%
Baromètre: 1006 hPa
Ciel: plutôt nuageux
Visibilité: 10 km
Détails du ciel: partiellement nuageux 1158 m
partiellement nuageux 1433 m
plutôt nuageux 1737 m
2024/06/16 18:55 EHGR 161855Z AUTO 20005KT 170V260 9999 SCT038 SCT047 BKN057 18/13 Q1006 BLU
EHEH - Eindhoven, Netherlands
Distance de la station: NNE 147km
Mise à jour: 16/06/2024 20:55
plutôt nuageux
plutôt nuageux
 Wind from SSE
Vent: SSE 7 km/h
Température: 17°C
Point de rosée: 14°C
Humidité: 83%
Baromètre: 1006 hPa
Ciel: plutôt nuageux
Visibilité: 10 km
Détails du ciel: quelques nuages 1219 m
plutôt nuageux 2408 m
plutôt nuageux 2560 m
2024/06/16 18:55 EHEH 161855Z AUTO 16004KT 140V200 9999 FEW040 BKN079 BKN084 17/14 Q1006 REDZ BLU NOSIG
 
ELLX - Luxembourg, Luxembourg
Distance de la station: ESE 162km
Mise à jour: 16/06/2024 20:50
plutôt nuageux
plutôt nuageux
 Wind from SSO
Vent: SSO 19 km/h
Température: 15°C
Point de rosée: 12°C
Humidité: 82%
Baromètre: 1010 hPa
Ciel: plutôt nuageux
Visibilité: 10 km
Détails du ciel: partiellement nuageux 914 m
plutôt nuageux 2438 m
2024/06/16 18:50 ELLX 161850Z 20010KT 170V230 9999 SCT030 BKN080 15/12 Q1010 NOSIG
EHVK - Volkel, Netherlands
Distance de la station: NE 174km
Mise à jour: 16/06/2024 20:55
couvert
couvert
 Wind from S
Vent: S 9 km/h
Température: 17°C
Point de rosée: 13°C
Humidité: 77%
Baromètre: 1006 hPa
Ciel: couvert
Visibilité: 10 km
Détails du ciel: quelques nuages 1402 m
couvert 8534 m
2024/06/16 18:55 EHVK 161855Z AUTO 19005KT 160V230 9999 FEW046 OVC280 17/13 Q1006 BLU
LFOK - Chalons/Vatry, France
Distance de la station: S 174km
Mise à jour: 16/06/2024 21:00
Thunderstorm
Thunderstorm
 Wind from SSO
Vent: SSO 17 km/h
Température: 16°C
Point de rosée: 15°C
Humidité: 94%
Baromètre: 1009 hPa
Ciel: Thunderstorm
Visibilité: 10 km
Détails du ciel: plutôt nuageux 396 m
plutôt nuageux 579 m
couvert 1036 m
2024/06/16 19:00 LFOK 161900Z AUTO 20009KT 9999 BKN013/// BKN019/// OVC034/// ///CB 16/15 Q1009 TEMPO 4000 SHRA
Script from Saratoga-Weather.org